createdAt,value
2018-11-25T00:00:41.892Z,22.97
2018-11-25T00:03:07.901Z,22.60
2018-11-25T00:05:33.872Z,21.13
2018-11-25T00:08:00.601Z,21.23
2018-11-25T00:10:26.582Z,25.83
2018-11-25T00:12:52.551Z,21.60
2018-11-25T00:15:19.273Z,23.17
2018-11-25T00:17:45.240Z,21.37
2018-11-25T00:20:11.982Z,22.53
2018-11-25T00:22:37.946Z,24.37
2018-11-25T00:25:03.902Z,24.17
2018-11-25T00:27:30.623Z,26.80
2018-11-25T00:29:56.562Z,28.37
2018-11-25T00:32:22.536Z,18.33
2018-11-25T00:34:48.494Z,24.43
2018-11-25T00:37:14.459Z,24.63
2018-11-25T00:39:41.152Z,21.20
2018-11-25T00:42:07.122Z,24.47
2018-11-25T00:44:33.075Z,26.50
2018-11-25T00:46:59.043Z,19.80
2018-11-25T00:49:25.746Z,26.17
2018-11-25T00:51:51.700Z,23.90
2018-11-25T00:54:18.420Z,25.60
2018-11-25T00:56:44.367Z,22.73
2018-11-25T00:59:11.078Z,24.57
2018-11-25T01:01:37.022Z,25.97
2018-11-25T01:04:03.564Z,25.97
2018-11-25T01:06:29.523Z,24.97
2018-11-25T01:08:55.457Z,26.47
2018-11-25T01:11:21.428Z,23.17
2018-11-25T01:13:47.370Z,24.07
2018-11-25T01:16:14.079Z,26.63
2018-11-25T01:18:40.025Z,26.00
2018-11-25T01:21:05.945Z,25.83
2018-11-25T01:23:32.665Z,22.20
2018-11-25T01:25:58.619Z,27.80
2018-11-25T01:28:24.598Z,27.90
2018-11-25T01:30:50.538Z,23.17
2018-11-25T01:33:16.524Z,22.97
2018-11-25T01:35:42.484Z,28.40
2018-11-25T01:38:08.413Z,26.00
2018-11-25T01:40:34.402Z,28.43
2018-11-25T01:43:00.362Z,29.23
2018-11-25T01:45:27.062Z,20.07
2018-11-25T01:47:53.008Z,25.33
2018-11-25T01:50:18.991Z,29.10
2018-11-25T01:52:44.940Z,23.80
2018-11-25T01:55:10.878Z,27.17
2018-11-25T01:57:36.842Z,26.17
2018-11-25T02:00:02.822Z,24.20
2018-11-25T02:02:28.803Z,30.87
2018-11-25T02:04:54.750Z,27.83
2018-11-25T02:07:20.709Z,29.93
2018-11-25T02:09:47.393Z,25.77
2018-11-25T02:12:13.383Z,35.10
2018-11-25T02:14:39.355Z,32.30
2018-11-25T02:17:05.296Z,31.07
2018-11-25T02:19:31.276Z,33.40
2018-11-25T02:21:57.238Z,32.40
2018-11-25T02:24:23.226Z,30.57
2018-11-25T02:26:49.165Z,31.43
2018-11-25T02:29:15.124Z,30.73
2018-11-25T02:31:41.803Z,29.10
2018-11-25T02:34:07.795Z,34.67
2018-11-25T02:36:33.739Z,35.77
2018-11-25T02:38:59.687Z,29.97
2018-11-25T02:41:25.633Z,30.93
2018-11-25T02:43:51.621Z,26.27
2018-11-25T02:46:17.634Z,30.13
2018-11-25T02:48:44.410Z,33.00
2018-11-25T02:51:10.372Z,32.13
2018-11-25T02:53:37.061Z,25.03
2018-11-25T02:56:03.035Z,33.00
2018-11-25T02:58:29.713Z,24.40
2018-11-25T03:00:55.696Z,33.07
2018-11-25T03:03:21.640Z,29.30
2018-11-25T03:05:47.612Z,26.00
2018-11-25T03:08:14.311Z,30.40
2018-11-25T03:10:40.271Z,31.83
2018-11-25T03:13:06.242Z,27.47
2018-11-25T03:15:32.172Z,26.83
2018-11-25T03:17:58.182Z,26.70
2018-11-25T03:20:24.165Z,32.40
2018-11-25T03:22:50.143Z,25.77
2018-11-25T03:25:16.105Z,29.87
2018-11-25T03:27:42.035Z,30.73
2018-11-25T03:30:08.023Z,32.20
2018-11-25T03:32:33.960Z,28.17
2018-11-25T03:34:59.946Z,32.10
2018-11-25T03:37:25.906Z,35.17
2018-11-25T03:39:51.897Z,28.70
2018-11-25T03:42:17.844Z,31.77
2018-11-25T03:44:43.834Z,23.00
2018-11-25T03:47:09.793Z,28.73
2018-11-25T03:49:35.780Z,25.37
2018-11-25T03:52:01.757Z,24.07
2018-11-25T03:54:27.707Z,30.83
2018-11-25T03:56:53.675Z,33.60
2018-11-25T03:59:19.610Z,28.87
2018-11-25T04:01:45.570Z,22.80
2018-11-25T04:04:12.262Z,26.80
2018-11-25T04:06:38.231Z,30.53
2018-11-25T04:09:04.918Z,24.93
2018-11-25T04:11:30.905Z,28.73
2018-11-25T04:13:56.856Z,22.47
2018-11-25T04:16:22.825Z,29.93
2018-11-25T04:18:49.537Z,30.57
2018-11-25T04:21:15.479Z,29.53
2018-11-25T04:23:41.439Z,29.53
2018-11-25T04:26:07.376Z,30.03
2018-11-25T04:28:33.360Z,27.00
2018-11-25T04:31:00.065Z,29.50
2018-11-25T04:33:26.053Z,31.83
2018-11-25T04:35:51.998Z,25.77
2018-11-25T04:38:17.981Z,31.60
2018-11-25T04:40:44.663Z,26.53
2018-11-25T04:43:10.655Z,31.47
2018-11-25T04:45:36.639Z,23.47
2018-11-25T04:48:02.594Z,30.43
2018-11-25T04:50:28.554Z,25.57
2018-11-25T04:52:54.514Z,26.30
2018-11-25T04:55:21.232Z,25.20
2018-11-25T04:57:47.191Z,26.00
2018-11-25T05:00:13.167Z,26.63
2018-11-25T05:02:39.109Z,24.23
2018-11-25T05:05:05.839Z,23.90
2018-11-25T05:07:31.795Z,26.27
2018-11-25T05:09:58.496Z,23.80
2018-11-25T05:12:24.462Z,21.37
2018-11-25T05:14:51.143Z,26.43
2018-11-25T05:17:17.134Z,25.27
2018-11-25T05:19:43.139Z,26.63
2018-11-25T05:22:09.857Z,22.53
2018-11-25T05:24:35.834Z,26.90
2018-11-25T05:27:01.812Z,23.33
2018-11-25T05:29:27.750Z,15.97
2018-11-25T05:31:54.465Z,22.70
2018-11-25T05:34:20.417Z,25.97
2018-11-25T05:36:47.105Z,27.30
2018-11-25T05:39:13.067Z,24.60
2018-11-25T05:41:39.765Z,26.07
2018-11-25T05:44:05.737Z,28.47
2018-11-25T05:46:32.428Z,32.63
2018-11-25T05:48:58.387Z,22.90
2018-11-25T05:51:24.324Z,26.13
2018-11-25T05:53:50.292Z,22.50
2018-11-25T05:56:16.261Z,24.03
2018-11-25T05:58:42.960Z,26.43
2018-11-25T06:01:08.942Z,27.43
2018-11-25T06:03:34.879Z,19.77
2018-11-25T06:06:00.846Z,26.73
2018-11-25T06:08:26.827Z,24.37
2018-11-25T06:10:52.830Z,29.13
2018-11-25T06:13:18.771Z,27.53
2018-11-25T06:15:44.718Z,27.57
2018-11-25T06:18:10.698Z,25.30
2018-11-25T06:20:36.634Z,31.83
2018-11-25T06:23:02.630Z,23.30
2018-11-25T06:25:29.315Z,23.90
2018-11-25T06:27:55.284Z,25.97
2018-11-25T06:30:21.959Z,31.00
2018-11-25T06:32:47.905Z,27.43
2018-11-25T06:35:13.873Z,29.73
2018-11-25T06:37:40.570Z,29.43
2018-11-25T06:40:06.542Z,28.77
2018-11-25T06:42:33.272Z,29.40
2018-11-25T06:44:59.272Z,29.63
2018-11-25T06:47:25.212Z,31.23
2018-11-25T06:49:51.940Z,24.57
2018-11-25T06:52:17.897Z,26.67
2018-11-25T06:54:43.852Z,29.63
2018-11-25T06:57:09.837Z,37.37
2018-11-25T06:59:35.789Z,28.00
2018-11-25T07:02:01.750Z,38.93
2018-11-25T07:04:27.694Z,34.77
2018-11-25T07:06:54.423Z,31.07
2018-11-25T07:09:20.370Z,36.87
2018-11-25T07:11:46.310Z,40.47
2018-11-25T07:14:12.279Z,37.23
2018-11-25T07:16:38.215Z,35.03
2018-11-25T07:19:04.938Z,29.80
2018-11-25T07:21:30.883Z,27.30
2018-11-25T07:23:57.569Z,28.37
2018-11-25T07:26:23.535Z,28.83
2018-11-25T07:28:50.241Z,35.20
2018-11-25T07:31:16.209Z,33.30
2018-11-25T07:33:42.190Z,32.07
2018-11-25T07:36:08.155Z,30.23
2018-11-25T07:38:34.875Z,30.20
2018-11-25T07:41:00.820Z,24.33
2018-11-25T07:43:27.543Z,28.83
2018-11-25T07:45:54.233Z,28.80
2018-11-25T07:48:20.232Z,28.63
2018-11-25T07:50:46.182Z,30.83
2018-11-25T07:53:12.163Z,34.43
2018-11-25T07:55:38.857Z,28.07
2018-11-25T07:58:04.829Z,30.57
2018-11-25T08:00:30.804Z,29.17
2018-11-25T08:02:56.794Z,29.87
2018-11-25T08:05:22.762Z,29.67
2018-11-25T08:07:48.722Z,25.17
2018-11-25T08:10:15.489Z,29.83
2018-11-25T08:12:41.442Z,26.43
2018-11-25T08:15:07.433Z,29.60
2018-11-25T08:17:33.396Z,26.60
2018-11-25T08:19:59.376Z,26.60
2018-11-25T08:22:25.328Z,27.43
2018-11-25T08:24:51.319Z,29.10
2018-11-25T08:27:17.271Z,26.37
2018-11-25T08:29:43.209Z,26.60
2018-11-25T08:32:09.190Z,25.73
2018-11-25T08:34:35.146Z,31.50
2018-11-25T08:37:01.129Z,27.53
2018-11-25T08:39:28.369Z,29.83
2018-11-25T08:41:53.818Z,28.07
2018-11-25T08:44:19.799Z,26.57
2018-11-25T08:46:45.742Z,26.83
2018-11-25T08:49:11.716Z,32.27
2018-11-25T08:51:38.414Z,30.93
2018-11-25T08:54:04.399Z,29.90
2018-11-25T08:56:30.352Z,28.87
2018-11-25T08:58:56.329Z,26.87
2018-11-25T09:01:23.006Z,31.20
2018-11-25T09:03:49.848Z,29.30
2018-11-25T09:06:15.798Z,28.00
2018-11-25T09:08:41.747Z,30.70
2018-11-25T09:11:07.726Z,31.37
2018-11-25T09:13:33.684Z,30.60
2018-11-25T09:16:00.193Z,32.73
2018-11-25T09:18:26.241Z,32.13
2018-11-25T09:20:52.200Z,35.63
2018-11-25T09:23:18.165Z,33.10
2018-11-25T09:25:44.166Z,31.67
2018-11-25T09:28:10.120Z,32.83
2018-11-25T09:30:36.810Z,30.83
2018-11-25T09:33:02.829Z,30.37
2018-11-25T09:35:29.509Z,31.07
2018-11-25T09:37:55.516Z,25.90
2018-11-25T09:40:21.477Z,27.93
2018-11-25T09:42:47.447Z,34.10
2018-11-25T09:45:13.417Z,32.00
2018-11-25T09:47:39.391Z,29.70
2018-11-25T09:50:05.373Z,29.40
2018-11-25T09:52:31.326Z,32.43
2018-11-25T09:54:58.024Z,32.43
2018-11-25T09:57:23.981Z,36.57
2018-11-25T09:59:50.696Z,37.67
2018-11-25T10:02:16.643Z,35.20
2018-11-25T10:04:42.646Z,30.20
2018-11-25T10:07:08.591Z,34.40
2018-11-25T10:09:34.580Z,33.90
2018-11-25T10:12:00.539Z,32.83
2018-11-25T10:14:27.279Z,24.10
2018-11-25T10:16:53.266Z,29.27
2018-11-25T10:19:19.634Z,25.67
2018-11-25T10:21:46.336Z,36.13
2018-11-25T10:24:12.341Z,32.60
2018-11-25T10:26:38.311Z,28.37
2018-11-25T10:29:05.001Z,27.63
2018-11-25T10:31:31.005Z,38.47
2018-11-25T10:33:56.951Z,33.40
2018-11-25T10:36:22.899Z,28.00
2018-11-25T10:38:48.865Z,32.67
2018-11-25T10:41:14.840Z,28.63
2018-11-25T10:43:40.835Z,32.37
2018-11-25T10:46:06.798Z,36.07
2018-11-25T10:48:33.533Z,29.73
2018-11-25T10:50:59.517Z,33.13
2018-11-25T10:53:26.313Z,26.87
2018-11-25T10:55:52.276Z,33.87
2018-11-25T10:58:18.246Z,30.97
2018-11-25T11:00:44.977Z,32.67
2018-11-25T11:03:10.929Z,36.87
2018-11-25T11:05:37.976Z,31.97
2018-11-25T11:08:03.947Z,24.60
2018-11-25T11:10:29.927Z,29.17
2018-11-25T11:12:55.899Z,33.60
2018-11-25T11:15:21.877Z,37.83
2018-11-25T11:17:47.867Z,37.00
2018-11-25T11:20:13.826Z,36.50
2018-11-25T11:22:39.835Z,29.73
2018-11-25T11:25:05.810Z,27.23
2018-11-25T11:27:32.104Z,36.00
2018-11-25T11:29:58.064Z,34.13
2018-11-25T11:32:24.076Z,34.60
2018-11-25T11:34:50.046Z,29.23
2018-11-25T11:37:16.749Z,29.60
2018-11-25T11:39:42.748Z,37.53
2018-11-25T11:42:08.725Z,35.97
2018-11-25T11:44:35.471Z,29.60
2018-11-25T11:47:02.179Z,39.13
2018-11-25T11:49:28.158Z,31.87
2018-11-25T11:51:54.127Z,34.50
2018-11-25T11:54:20.129Z,37.03
2018-11-25T11:56:46.118Z,34.53
2018-11-25T11:59:12.828Z,41.67
2018-11-25T12:01:39.519Z,34.40
2018-11-25T12:04:05.510Z,37.00
2018-11-25T12:06:31.479Z,33.80
2018-11-25T12:08:57.508Z,39.73
2018-11-25T12:11:23.483Z,37.20
2018-11-25T12:13:49.462Z,38.30
2018-11-25T12:16:15.465Z,40.10
2018-11-25T12:18:41.428Z,34.93
2018-11-25T12:21:08.168Z,32.80
2018-11-25T12:23:34.880Z,37.33
2018-11-25T12:26:00.883Z,36.30
2018-11-25T12:28:26.896Z,29.10
2018-11-25T12:30:52.869Z,30.77
2018-11-25T12:33:18.873Z,35.70
2018-11-25T12:35:44.829Z,35.77
2018-11-25T12:38:11.560Z,26.37
2018-11-25T12:40:37.523Z,30.77
2018-11-25T12:43:03.509Z,34.47
2018-11-25T12:45:30.221Z,34.37
2018-11-25T12:47:56.199Z,33.27
2018-11-25T12:50:22.162Z,34.93
2018-11-25T12:52:48.145Z,31.13
2018-11-25T12:55:14.127Z,44.70
2018-11-25T12:57:40.099Z,35.33
2018-11-25T13:00:06.078Z,28.73
2018-11-25T13:02:32.034Z,32.30
2018-11-25T13:04:58.044Z,27.53
2018-11-25T13:07:24.747Z,37.90
2018-11-25T13:09:50.730Z,27.50
2018-11-25T13:12:16.676Z,30.87
2018-11-25T13:14:42.660Z,37.10
2018-11-25T13:17:09.353Z,29.70
2018-11-25T13:19:35.314Z,27.73
2018-11-25T13:22:02.069Z,29.10
2018-11-25T13:24:28.787Z,31.67
2018-11-25T13:26:54.819Z,28.73
2018-11-25T13:29:21.522Z,30.53
2018-11-25T13:31:47.497Z,27.83
2018-11-25T13:34:13.469Z,29.40
2018-11-25T13:36:39.440Z,30.33
2018-11-25T13:39:06.169Z,35.73
2018-11-25T13:41:33.854Z,29.93
2018-11-25T13:43:59.840Z,32.73
2018-11-25T13:46:26.559Z,33.00
2018-11-25T13:48:52.549Z,36.73
2018-11-25T13:51:19.111Z,32.03
2018-11-25T13:53:45.087Z,31.57
2018-11-25T13:56:11.090Z,33.03
2018-11-25T13:58:37.828Z,29.10
2018-11-25T14:01:03.775Z,26.57
2018-11-25T14:03:29.777Z,29.60
2018-11-25T14:05:56.498Z,31.73
2018-11-25T14:08:22.492Z,27.87
2018-11-25T14:10:48.472Z,26.80
2018-11-25T14:13:15.184Z,28.53
2018-11-25T14:15:41.174Z,27.73
2018-11-25T14:18:07.143Z,30.30
2018-11-25T14:20:33.144Z,28.77
2018-11-25T14:22:59.105Z,26.63
2018-11-25T14:25:25.833Z,30.20
2018-11-25T14:27:51.775Z,30.70
2018-11-25T14:30:17.731Z,25.37
2018-11-25T14:32:43.729Z,29.93
2018-11-25T14:35:09.692Z,33.07
2018-11-25T14:37:35.699Z,24.90
2018-11-25T14:40:01.659Z,28.23
2018-11-25T14:42:27.636Z,27.57
2018-11-25T14:44:53.627Z,22.30
2018-11-25T14:47:20.369Z,28.43
2018-11-25T14:49:47.060Z,27.37
2018-11-25T14:52:13.015Z,25.40
2018-11-25T14:54:38.990Z,27.00
2018-11-25T14:57:04.954Z,27.50
2018-11-25T14:59:31.697Z,26.90
2018-11-25T15:01:58.411Z,26.17
2018-11-25T15:04:24.383Z,28.67
2018-11-25T15:06:50.357Z,32.13
2018-11-25T15:09:16.337Z,30.47
2018-11-25T15:11:42.295Z,35.10
2018-11-25T15:14:08.280Z,28.83
2018-11-25T15:16:34.243Z,27.03
2018-11-25T15:19:00.294Z,25.97
2018-11-25T15:21:26.245Z,25.67
2018-11-25T15:23:52.211Z,26.83
2018-11-25T15:26:18.213Z,22.43
2018-11-25T15:28:44.159Z,27.03
2018-11-25T15:31:10.143Z,28.17
2018-11-25T15:33:36.129Z,26.17
2018-11-25T15:36:02.107Z,25.10
2018-11-25T15:38:28.062Z,24.77
2018-11-25T15:40:54.024Z,24.40
2018-11-25T15:43:20.019Z,25.23
2018-11-25T15:45:45.968Z,33.00
2018-11-25T15:48:12.681Z,25.60
2018-11-25T15:50:38.633Z,24.00
2018-11-25T15:53:04.616Z,23.27
2018-11-25T15:55:30.561Z,28.17
2018-11-25T15:57:56.540Z,30.33
2018-11-25T16:00:22.505Z,28.97
2018-11-25T16:02:49.249Z,22.50
2018-11-25T16:05:15.980Z,30.33
2018-11-25T16:07:41.949Z,28.93
2018-11-25T16:10:07.939Z,26.70
2018-11-25T16:12:34.627Z,33.83
2018-11-25T16:15:00.613Z,24.80
2018-11-25T16:17:26.572Z,22.80
2018-11-25T16:19:53.542Z,24.33
2018-11-25T16:22:19.499Z,18.90
2018-11-25T16:24:46.244Z,23.73
2018-11-25T16:27:12.257Z,22.83
2018-11-25T16:29:38.943Z,20.20
2018-11-25T16:32:04.931Z,22.77
2018-11-25T16:34:30.884Z,22.93
2018-11-25T16:36:56.888Z,17.07
2018-11-25T16:39:22.833Z,16.90
2018-11-25T16:41:48.886Z,15.77
2018-11-25T16:44:14.835Z,17.80
2018-11-25T16:46:41.516Z,16.67
2018-11-25T16:49:07.495Z,20.03
2018-11-25T16:51:34.181Z,19.30
2018-11-25T16:54:00.175Z,13.20
2018-11-25T16:56:26.135Z,17.77
2018-11-25T16:58:52.138Z,23.47
2018-11-25T17:01:18.100Z,15.73
2018-11-25T17:03:44.074Z,19.00
2018-11-25T17:06:10.053Z,17.27
2018-11-25T17:08:36.031Z,20.43
2018-11-25T17:11:02.044Z,15.90
2018-11-25T17:13:28.002Z,22.07
2018-11-25T17:15:54.008Z,18.97
2018-11-25T17:18:19.982Z,15.67
2018-11-25T17:20:45.973Z,15.93
2018-11-25T17:23:11.937Z,16.70
2018-11-25T17:25:38.620Z,20.40
2018-11-25T17:28:04.628Z,22.87
2018-11-25T17:30:30.624Z,20.17
2018-11-25T17:32:56.606Z,26.27
2018-11-25T17:35:22.570Z,16.70
2018-11-25T17:37:49.281Z,20.83
2018-11-25T17:40:15.285Z,20.90
2018-11-25T17:42:41.264Z,20.80
2018-11-25T17:45:07.230Z,17.30
2018-11-25T17:47:33.200Z,17.63
2018-11-25T17:49:59.164Z,18.83
2018-11-25T17:52:25.172Z,20.93
2018-11-25T17:54:51.150Z,19.33
2018-11-25T17:57:17.842Z,19.30
2018-11-25T17:59:43.842Z,19.50
2018-11-25T18:02:09.848Z,21.83
2018-11-25T18:04:35.840Z,19.43
2018-11-25T18:07:01.824Z,17.00
2018-11-25T18:09:27.855Z,16.60
2018-11-25T18:11:53.826Z,22.33
2018-11-25T18:14:19.792Z,17.47
2018-11-25T18:16:45.795Z,16.47
2018-11-25T18:19:11.770Z,20.80
2018-11-25T18:21:37.797Z,22.93
2018-11-25T18:24:03.761Z,21.90
2018-11-25T18:26:30.490Z,21.07
2018-11-25T18:28:57.202Z,19.00
2018-11-25T18:31:23.187Z,17.13
2018-11-25T18:33:49.916Z,21.90
2018-11-25T18:36:15.928Z,21.63
2018-11-25T18:38:41.887Z,22.10
2018-11-25T18:41:07.895Z,20.67
2018-11-25T18:43:33.867Z,19.77
2018-11-25T18:45:59.831Z,24.30
2018-11-25T18:48:25.827Z,20.30
2018-11-25T18:50:52.529Z,16.97
2018-11-25T18:53:18.530Z,18.73
2018-11-25T18:55:44.499Z,24.93
2018-11-25T18:58:11.234Z,22.60
2018-11-25T19:00:37.216Z,24.83
2018-11-25T19:03:03.192Z,19.13
2018-11-25T19:05:30.617Z,27.47
2018-11-25T19:07:56.593Z,25.33
2018-11-25T19:10:22.565Z,19.03
2018-11-25T19:12:48.603Z,24.90
2018-11-25T19:15:14.592Z,21.07
2018-11-25T19:17:40.565Z,24.00
2018-11-25T19:20:07.309Z,24.73
2018-11-25T19:22:35.429Z,24.43
2018-11-25T19:25:00.092Z,21.67
2018-11-25T19:27:26.083Z,27.50
2018-11-25T19:29:52.066Z,20.57
2018-11-25T19:32:18.041Z,22.03
2018-11-25T19:34:44.755Z,28.37
2018-11-25T19:37:10.750Z,24.80
2018-11-25T19:39:36.750Z,24.67
2018-11-25T19:42:02.755Z,29.00
2018-11-25T19:44:29.471Z,27.70
2018-11-25T19:46:55.453Z,26.13
2018-11-25T19:49:21.422Z,24.83
2018-11-25T19:51:47.414Z,33.53
2018-11-25T19:54:13.372Z,27.67
2018-11-25T19:56:40.135Z,30.63
2018-11-25T19:59:06.836Z,30.57
2018-11-25T20:01:32.839Z,30.37
2018-11-25T20:03:58.837Z,22.87
2018-11-25T20:06:24.833Z,26.87
2018-11-25T20:08:51.557Z,27.40
2018-11-25T20:11:17.530Z,27.03
2018-11-25T20:13:43.523Z,34.67
2018-11-25T20:16:10.253Z,24.97
2018-11-25T20:18:36.283Z,27.17
2018-11-25T20:21:02.284Z,24.03
2018-11-25T20:23:28.293Z,29.77
2018-11-25T20:25:54.246Z,27.80
2018-11-25T20:28:20.961Z,21.00
2018-11-25T20:30:54.603Z,29.37
2018-11-25T20:33:21.311Z,29.70
2018-11-25T20:35:47.304Z,23.67
2018-11-25T20:38:13.282Z,26.27
2018-11-25T20:40:40.026Z,27.83
2018-11-25T20:43:05.992Z,29.13
2018-11-25T20:45:38.490Z,33.60
2018-11-25T20:47:59.163Z,23.83
2018-11-25T20:50:24.046Z,36.43
2018-11-25T20:52:50.769Z,28.90
2018-11-25T20:55:16.755Z,27.40
2018-11-25T20:57:42.715Z,34.30
2018-11-25T21:00:09.473Z,32.93
2018-11-25T21:02:35.428Z,28.97
2018-11-25T21:05:01.386Z,23.93
2018-11-25T21:07:28.120Z,25.83
2018-11-25T21:09:54.073Z,26.97
2018-11-25T21:12:20.064Z,33.43
2018-11-25T21:14:46.805Z,24.87
2018-11-25T21:17:13.335Z,29.80
2018-11-25T21:19:38.796Z,31.70
2018-11-25T21:22:04.779Z,33.57
2018-11-25T21:24:31.543Z,27.27
2018-11-25T21:26:57.536Z,26.73
2018-11-25T21:29:23.490Z,26.17
2018-11-25T21:31:49.475Z,27.73
2018-11-25T21:34:15.443Z,24.73
2018-11-25T21:36:41.439Z,29.23
2018-11-25T21:39:08.138Z,27.57
2018-11-25T21:41:34.129Z,22.07
2018-11-25T21:44:00.092Z,27.47
2018-11-25T21:46:26.092Z,24.77
2018-11-25T21:48:52.066Z,27.40
2018-11-25T21:51:18.097Z,25.97
2018-11-25T21:53:44.773Z,29.97
2018-11-25T21:56:14.339Z,27.27
2018-11-25T21:58:36.808Z,26.77
2018-11-25T22:01:02.775Z,26.10
2018-11-25T22:03:28.739Z,26.87
2018-11-25T22:05:54.717Z,23.90
2018-11-25T22:08:20.704Z,24.37
2018-11-25T22:10:46.668Z,26.63
2018-11-25T22:13:12.675Z,27.47
2018-11-25T22:15:38.659Z,26.97
2018-11-25T22:18:04.640Z,23.57
2018-11-25T22:20:30.600Z,24.07
2018-11-25T22:22:56.576Z,27.20
2018-11-25T22:25:22.567Z,32.67
2018-11-25T22:27:48.585Z,28.33
2018-11-25T22:30:14.606Z,25.73
2018-11-25T22:32:40.588Z,27.83
2018-11-25T22:35:07.280Z,31.10
2018-11-25T22:37:33.269Z,27.83
2018-11-25T22:39:59.974Z,24.73
2018-11-25T22:42:25.975Z,29.67
2018-11-25T22:44:51.932Z,36.50
2018-11-25T22:47:17.940Z,27.63
2018-11-25T22:49:43.895Z,25.17
2018-11-25T22:52:10.627Z,23.33
2018-11-25T22:54:37.370Z,26.17
2018-11-25T22:57:04.109Z,26.63
2018-11-25T22:59:30.048Z,24.50
2018-11-25T23:01:56.751Z,20.47
2018-11-25T23:04:22.741Z,24.37
2018-11-25T23:06:48.719Z,23.00
2018-11-25T23:09:14.758Z,31.33
2018-11-25T23:11:41.503Z,34.97
2018-11-25T23:14:07.474Z,26.33
2018-11-25T23:16:33.441Z,27.77
2018-11-25T23:18:59.415Z,22.70
2018-11-25T23:21:25.390Z,23.47
2018-11-25T23:23:52.359Z,25.47
2018-11-25T23:26:18.340Z,22.07
2018-11-25T23:28:45.055Z,26.13
2018-11-25T23:31:11.016Z,28.73
2018-11-25T23:33:37.000Z,22.90
2018-11-25T23:36:02.962Z,22.57
2018-11-25T23:38:29.698Z,23.47
2018-11-25T23:40:56.392Z,22.03
2018-11-25T23:43:22.366Z,29.13
2018-11-25T23:45:48.306Z,26.30
2018-11-25T23:48:14.277Z,23.87
2018-11-25T23:50:40.228Z,25.13
2018-11-25T23:53:07.056Z,26.67
2018-11-25T23:55:33.759Z,23.73
2018-11-25T23:57:59.702Z,25.80
